Time;durP1;ratioP1;P1;durP2;ratioP2;P2;SDS_P1;SDS_P2;PMS_P1;PMS_P2;Temp;Humidity;BMP_temperature;BMP_pressure;BME280_temperature;BME280_humidity;BME280_pressure;Samples;Min_cycle;Max_cycle;Signal;HPM_P1;HPM_P2
2023/06/09 00:02:06;;;;;;;8.80;6.35;;;;;;;20.92;67.23;99384.37;7736091;32;39339;-83
2023/06/09 00:06:23;;;;;;;10.98;5.70;;;;;;;21.15;66.39;99379.09;7735590;32;39879;-82
2023/06/09 00:10:40;;;;;;;10.15;5.50;;;;;;;21.22;65.79;99382.06;7735881;32;37920;-83
2023/06/09 00:14:57;;;;;;;10.13;5.55;;;;;;;20.86;66.65;99383.81;7735906;32;37841;-82
2023/06/09 00:19:16;;;;;;;12.95;5.95;;;;;;;21.18;65.49;99389.50;7735728;32;40045;-82
2023/06/09 00:23:33;;;;;;;10.70;6.70;;;;;;;21.09;65.58;99383.28;7735492;32;39984;-82
2023/06/09 00:27:50;;;;;;;13.90;7.62;;;;;;;20.73;67.09;99393.31;7746802;32;38889;-83
2023/06/09 00:32:08;;;;;;;11.93;8.02;;;;;;;20.68;67.82;99396.31;7762555;32;37985;-83
2023/06/09 00:36:25;;;;;;;12.98;7.18;;;;;;;20.71;67.84;99390.87;7766377;32;38496;-82
2023/06/09 00:40:41;;;;;;;14.02;8.45;;;;;;;20.55;68.71;99396.31;7766426;32;39958;-83
2023/06/09 00:44:57;;;;;;;12.45;8.48;;;;;;;20.65;68.85;99391.50;7766085;32;37961;-82
2023/06/09 00:49:14;;;;;;;13.10;8.27;;;;;;;20.83;68.30;99387.28;7766381;32;37957;-83
2023/06/09 00:53:30;;;;;;;14.75;7.87;;;;;;;20.87;68.08;99390.97;7766087;32;40109;-82
2023/06/09 00:57:48;;;;;;;14.13;8.02;;;;;;;20.89;68.02;99385.88;7766155;32;40694;-82
2023/06/09 01:02:05;;;;;;;13.25;7.45;;;;;;;20.96;67.83;99391.63;7765936;32;38600;-82
2023/06/09 01:06:30;;;;;;;14.52;8.10;;;;;;;21.00;67.59;99383.41;7765996;32;36850;-82
2023/06/09 01:10:56;;;;;;;19.10;7.97;;;;;;;20.90;67.73;99372.84;7765840;32;40525;-82
2023/06/09 01:15:26;;;;;;;14.95;7.78;;;;;;;20.89;67.82;99391.44;7757528;32;40822;-82
2023/06/09 01:19:46;;;;;;;15.25;8.15;;;;;;;20.78;68.47;99388.34;7738585;32;37966;-82
2023/06/09 01:24:58;;;;;;;12.57;7.50;;;;;;;20.82;67.89;99392.03;7738725;32;37784;-82
2023/06/09 01:29:15;;;;;;;13.60;8.95;;;;;;;20.18;70.82;99401.88;7712571;32;39131;-82
2023/06/09 01:33:32;;;;;;;12.18;8.40;;;;;;;20.43;69.94;99388.03;7738391;32;40821;-82
2023/06/09 01:37:48;;;;;;;13.70;8.35;;;;;;;20.54;69.65;99391.13;7737367;32;37832;-82
2023/06/09 01:42:06;;;;;;;15.35;8.30;;;;;;;20.41;70.01;99388.38;7738640;32;36952;-82
2023/06/09 01:46:22;;;;;;;17.60;7.95;;;;;;;20.57;69.45;99380.16;7737319;32;40056;-82
2023/06/09 01:50:52;;;;;;;10.32;5.43;;;;;;;20.48;69.34;99382.25;7737296;32;39579;-81
2023/06/09 01:55:17;;;;;;;10.25;6.28;;;;;;;20.59;67.59;99380.62;7737179;32;37920;-82
2023/06/09 01:59:54;;;;;;;8.95;4.75;;;;;;;20.53;67.32;99373.69;7738397;32;37317;-82
2023/06/09 02:04:11;;;;;;;8.27;4.37;;;;;;;20.18;67.37;99385.28;7736377;32;39710;-82
2023/06/09 02:08:29;;;;;;;9.35;4.37;;;;;;;20.19;66.47;99375.00;7740543;32;40032;-82
2023/06/09 02:12:45;;;;;;;7.60;4.70;;;;;;;20.22;66.98;99369.59;7763922;32;38662;-83
2023/06/09 02:17:03;;;;;;;8.82;4.40;;;;;;;20.33;66.54;99363.56;7765184;32;37209;-82
2023/06/09 02:21:19;;;;;;;16.08;4.28;;;;;;;20.21;66.92;99367.16;7765134;32;39230;-82
2023/06/09 02:25:35;;;;;;;4.93;3.42;;;;;;;20.21;66.92;99368.00;7764975;32;39852;-82
2023/06/09 02:29:51;;;;;;;5.97;2.62;;;;;;;20.12;66.66;99369.25;7764734;32;38032;-82
2023/06/09 02:34:08;;;;;;;5.20;2.60;;;;;;;20.12;66.40;99369.25;7765061;32;37156;-82
2023/06/09 02:38:26;;;;;;;3.50;2.20;;;;;;;20.07;66.11;99378.56;7764636;32;39450;-82
2023/06/09 02:42:42;;;;;;;6.40;2.40;;;;;;;20.14;65.49;99367.72;7764815;32;40793;-83
2023/06/09 02:47:01;;;;;;;6.32;2.03;;;;;;;20.05;65.69;99375.34;7764608;32;39168;-83
2023/06/09 02:51:18;;;;;;;3.03;2.00;;;;;;;20.26;64.27;99381.59;7764894;32;37284;-82
2023/06/09 02:55:34;;;;;;;4.57;1.83;;;;;;;20.14;64.26;99389.88;7764179;32;40073;-82
2023/06/09 02:59:50;;;;;;;4.28;2.30;;;;;;;19.74;65.86;99393.28;7763093;32;40004;-82
2023/06/09 03:04:07;;;;;;;4.47;2.17;;;;;;;19.78;65.63;99397.00;7764322;32;38110;-82
2023/06/09 03:08:24;;;;;;;7.60;2.35;;;;;;;20.00;64.97;99397.72;7755511;32;37090;-82
2023/06/09 03:12:40;;;;;;;4.45;2.00;;;;;;;20.00;64.66;99389.41;7737404;32;39326;-83
2023/06/09 03:16:58;;;;;;;4.72;2.25;;;;;;;19.87;65.12;99392.16;7736008;32;39929;-83
2023/06/09 03:21:14;;;;;;;4.28;1.98;;;;;;;19.80;65.52;99391.94;7736849;32;39428;-82
2023/06/09 03:25:31;;;;;;;3.67;1.85;;;;;;;19.92;65.25;99393.09;7737104;32;37334;-82
2023/06/09 03:29:47;;;;;;;3.12;1.80;;;;;;;19.81;65.61;99406.56;7736869;32;39264;-82
2023/06/09 03:34:03;;;;;;;5.60;1.85;;;;;;;20.00;65.03;99400.47;7736862;32;40696;-83
2023/06/09 03:38:19;;;;;;;6.07;2.12;;;;;;;19.67;66.37;99404.09;7736717;32;38683;-83
2023/06/09 03:42:35;;;;;;;2.92;2.12;;;;;;;19.76;66.61;99401.25;7736690;32;37040;-82
2023/06/09 03:46:52;;;;;;;6.22;2.25;;;;;;;19.84;66.74;99409.44;7736664;32;39376;-83
2023/06/09 03:51:08;;;;;;;3.75;2.17;;;;;;;19.93;66.78;99414.87;7736434;32;39887;-82
2023/06/09 03:55:25;;;;;;;3.58;2.22;;;;;;;19.82;67.37;99411.75;7736293;32;37815;-82
2023/06/09 03:59:41;;;;;;;3.78;2.05;;;;;;;19.83;67.37;99413.38;7760837;32;37698;-83
2023/06/09 04:03:57;;;;;;;6.10;2.37;;;;;;;19.82;67.50;99416.50;7762976;32;39459;-82
2023/06/09 04:08:14;;;;;;;5.68;2.83;;;;;;;19.98;67.05;99413.84;7751118;32;41579;-83
2023/06/09 04:12:30;;;;;;;5.97;2.78;;;;;;;19.98;67.00;99420.19;7739518;32;37832;-82
2023/06/09 04:16:46;;;;;;;11.85;2.60;;;;;;;19.86;66.97;99420.97;7739796;32;36995;-82
2023/06/09 04:21:03;;;;;;;5.60;2.55;;;;;;;19.78;67.62;99419.13;7739639;32;40137;-83
2023/06/09 04:25:25;;;;;;;5.30;2.58;;;;;;;19.85;66.95;99424.06;7739465;32;39920;-82
2023/06/09 04:29:44;;;;;;;7.10;2.80;;;;;;;19.82;66.60;99422.81;7739352;32;38082;-82
2023/06/09 04:34:10;;;;;;;8.00;3.40;;;;;;;20.08;66.00;99422.50;7739537;32;38246;-82
2023/06/09 04:38:27;;;;;;;6.65;3.53;;;;;;;20.15;65.97;99416.41;7739391;32;39246;-82
2023/06/09 04:42:43;;;;;;;7.97;4.03;;;;;;;20.06;66.58;99419.28;7739308;32;40806;-82
2023/06/09 04:47:02;;;;;;;5.32;3.03;;;;;;;19.79;67.70;99412.44;7739084;32;37882;-83
2023/06/09 04:51:19;;;;;;;11.70;3.50;;;;;;;19.77;67.87;99411.97;7739308;32;37223;-82
2023/06/09 04:55:35;;;;;;;6.82;3.10;;;;;;;19.68;67.93;99405.72;7739367;32;39149;-82
2023/06/09 04:59:53;;;;;;;5.95;3.40;;;;;;;20.09;66.81;99415.00;7765680;32;39993;-83
2023/06/09 05:04:09;;;;;;;4.28;2.40;;;;;;;19.93;67.46;99411.31;7765891;32;38036;-82
2023/06/09 05:08:25;;;;;;;3.92;2.97;;;;;;;19.89;67.62;99405.66;7764400;32;37082;-83
2023/06/09 05:12:42;;;;;;;3.55;2.40;;;;;;;19.89;67.94;99412.00;7765621;32;39349;-82
2023/06/09 05:16:58;;;;;;;8.73;2.53;;;;;;;20.05;66.93;99425.16;7765430;32;39950;-83
2023/06/09 05:21:14;;;;;;;10.68;2.70;;;;;;;19.89;66.33;99431.34;7765398;32;38662;-83
2023/06/09 05:25:30;;;;;;;6.65;2.60;;;;;;;19.96;66.46;99428.03;7765749;32;37141;-82
2023/06/09 05:29:47;;;;;;;4.68;2.37;;;;;;;20.05;66.71;99425.94;7746012;32;39879;-83
2023/06/09 05:34:03;;;;;;;5.55;2.60;;;;;;;20.11;67.26;99432.09;7737403;32;39896;-82
2023/06/09 05:38:23;;;;;;;4.22;2.53;;;;;;;20.26;65.78;99420.34;7746795;32;37998;-83
2023/06/09 05:42:39;;;;;;;5.78;2.50;;;;;;;20.33;65.85;99422.50;7765650;32;37129;-83
2023/06/09 05:46:55;;;;;;;10.23;2.55;;;;;;;20.22;67.26;99422.16;7765483;32;40097;-83
2023/06/09 05:51:12;;;;;;;4.43;2.35;;;;;;;20.38;67.40;99416.75;7738576;32;40010;-82
2023/06/09 05:55:28;;;;;;;8.60;3.22;;;;;;;20.56;65.14;99420.09;7738481;32;39148;-82
2023/06/09 05:59:45;;;;;;;6.43;2.20;;;;;;;20.61;63.97;99421.78;7755078;32;36817;-83
2023/06/09 06:04:01;;;;;;;3.83;2.50;;;;;;;20.78;62.76;99415.22;7765050;32;39275;-82
2023/06/09 06:08:18;;;;;;;3.80;2.20;;;;;;;20.84;63.53;99419.38;7756161;32;39957;-82
2023/06/09 06:12:34;;;;;;;5.50;2.42;;;;;;;21.19;62.69;99427.13;7738123;32;38771;-82
2023/06/09 06:16:50;;;;;;;4.90;2.05;;;;;;;21.01;63.89;99424.63;7738184;32;37214;-82
2023/06/09 06:21:07;;;;;;;3.67;2.25;;;;;;;20.47;64.74;99421.34;7763326;32;40083;-82
2023/06/09 06:25:23;;;;;;;3.28;2.30;;;;;;;20.95;63.27;99422.47;7764957;32;40618;-82
2023/06/09 06:29:40;;;;;;;3.47;2.28;;;;;;;21.24;62.20;99421.31;7748138;32;38025;-82
2023/06/09 06:33:57;;;;;;;3.03;2.30;;;;;;;21.32;61.35;99425.12;7763914;32;37220;-70
2023/06/09 06:38:14;;;;;;;10.40;2.65;;;;;;;21.39;60.63;99419.78;7758086;32;39348;-72
2023/06/09 06:42:30;;;;;;;4.68;2.22;;;;;;;21.23;61.62;99421.66;7738029;32;39955;-83
2023/06/09 06:46:46;;;;;;;6.25;2.60;;;;;;;21.32;62.84;99420.38;7738069;32;38603;-83
2023/06/09 06:51:05;;;;;;;6.40;3.65;;;;;;;21.46;61.96;99427.47;7750884;32;36718;-83
2023/06/09 06:55:21;;;;;;;6.90;4.50;;;;;;;21.53;62.86;99430.47;7772574;32;39700;-85
2023/06/09 06:59:38;;;;;;;7.35;4.87;;;;;;;21.59;63.57;99429.03;7770789;32;40807;-86
2023/06/09 07:03:55;;;;;;;8.70;5.55;;;;;;;21.45;64.81;99445.28;7744024;32;38773;-87
2023/06/09 07:08:12;;;;;;;10.50;5.60;;;;;;;21.40;64.62;99438.00;7748150;32;37959;-85
2023/06/09 07:12:28;;;;;;;8.43;5.65;;;;;;;21.32;65.31;99442.56;7755217;32;39235;-83
2023/06/09 07:16:45;;;;;;;9.07;5.72;;;;;;;21.38;64.97;99446.66;7741623;32;41208;-84
2023/06/09 07:21:02;;;;;;;11.38;5.75;;;;;;;21.30;65.74;99447.66;7773403;32;38568;-81
2023/06/09 07:25:20;;;;;;;10.57;5.87;;;;;;;21.18;66.32;99447.69;7759301;32;36050;-81
2023/06/09 07:29:36;;;;;;;11.25;6.60;;;;;;;21.28;65.98;99468.56;7783860;32;40104;-83
2023/06/09 07:33:53;;;;;;;12.20;6.60;;;;;;;21.19;66.59;99477.81;7760464;32;40636;-82
2023/06/09 07:38:11;;;;;;;15.82;6.20;;;;;;;21.17;66.91;99469.03;7760790;32;38021;-82
2023/06/09 07:42:27;;;;;;;13.15;7.20;;;;;;;21.11;67.22;99476.00;7767921;32;37890;-82
2023/06/09 07:46:43;;;;;;;11.30;6.53;;;;;;;21.08;67.01;99481.44;7764772;32;39237;-85
2023/06/09 07:51:02;;;;;;;11.07;7.80;;;;;;;21.08;66.48;99478.66;7764126;32;40869;-83
2023/06/09 07:55:19;;;;;;;16.20;7.72;;;;;;;20.91;67.16;99483.31;7762673;32;37650;-83
2023/06/09 07:59:35;;;;;;;13.10;7.15;;;;;;;20.95;67.52;99473.13;7758384;32;36596;-83
2023/06/09 08:03:51;;;;;;;12.13;6.60;;;;;;;21.07;67.44;99474.28;7761721;32;39276;-83
2023/06/09 08:08:08;;;;;;;14.18;7.35;;;;;;;21.07;67.56;99460.41;7749592;32;39986;-83
2023/06/09 08:12:24;;;;;;;14.23;6.80;;;;;;;21.14;67.52;99457.84;7765393;32;37846;-83
2023/06/09 08:16:41;;;;;;;10.05;6.12;;;;;;;21.23;66.92;99461.31;7765914;32;37093;-83
2023/06/09 08:20:57;;;;;;;10.43;5.00;;;;;;;21.26;66.68;99460.59;7756424;32;39349;-80
2023/06/09 08:25:13;;;;;;;8.80;4.35;;;;;;;21.29;66.62;99454.34;7785929;32;40889;-80
2023/06/09 08:29:30;;;;;;;7.30;3.87;;;;;;;21.24;66.17;99460.13;7762591;32;37975;-81
2023/06/09 08:33:47;;;;;;;9.48;3.65;;;;;;;21.15;66.21;99470.56;7762618;32;36993;-83
2023/06/09 08:38:04;;;;;;;21.95;4.53;;;;;;;21.07;66.18;99463.19;7763325;32;39391;-82
2023/06/09 08:42:25;;;;;;;10.48;3.95;;;;;;;21.22;65.37;99469.97;7763454;32;38433;-84
2023/06/09 08:46:42;;;;;;;9.05;4.18;;;;;;;20.96;66.67;99469.22;7762221;32;37887;-82
2023/06/09 08:51:00;;;;;;;9.90;4.65;;;;;;;21.14;66.55;99472.50;7760313;32;37767;-82
2023/06/09 08:55:17;;;;;;;15.43;4.40;;;;;;;21.15;66.84;99462.25;7762119;32;39143;-83
2023/06/09 08:59:35;;;;;;;12.80;3.97;;;;;;;21.22;66.84;99469.97;7761451;32;40087;-82
2023/06/09 09:03:53;;;;;;;6.05;3.67;;;;;;;21.25;66.56;99466.47;7762753;32;36481;-82
2023/06/09 09:08:09;;;;;;;6.87;3.53;;;;;;;21.25;66.83;99458.97;7759009;32;37780;-82
2023/06/09 09:12:26;;;;;;;4.20;2.65;;;;;;;21.28;66.75;99463.81;7759435;32;41206;-81
2023/06/09 09:16:42;;;;;;;3.97;2.30;;;;;;;21.36;66.04;99453.75;7745643;32;39905;-81
2023/06/09 09:20:58;;;;;;;3.65;2.40;;;;;;;21.27;65.69;99445.56;7765086;32;38707;-82
2023/06/09 09:25:29;;;;;;;3.50;2.22;;;;;;;21.25;65.54;99447.91;7743401;32;37772;-82
2023/06/09 09:29:46;;;;;;;9.00;2.50;;;;;;;21.49;65.06;99440.66;7739713;32;40851;-69
2023/06/09 09:34:02;;;;;;;6.47;2.33;;;;;;;21.76;64.96;99448.12;7765245;32;40912;-70
2023/06/09 09:38:24;;;;;;;4.72;2.10;;;;;;;21.87;63.92;99451.22;7758475;32;38541;-71
2023/06/09 09:42:41;;;;;;;2.87;1.95;;;;;;;21.85;64.27;99449.94;7788036;32;36059;-72
2023/06/09 09:46:59;;;;;;;2.97;2.12;;;;;;;21.89;61.00;99456.41;7764131;32;39871;-83
2023/06/09 09:51:19;;;;;;;3.67;2.12;;;;;;;21.96;60.95;99459.37;7738660;32;39830;-83
2023/06/09 09:55:38;;;;;;;4.40;2.30;;;;;;;22.12;62.87;99451.84;7756811;32;38022;-83
2023/06/09 09:59:56;;;;;;;4.35;2.90;;;;;;;22.33;61.97;99450.00;7775551;32;37069;-83
2023/06/09 10:04:12;;;;;;;7.20;2.97;;;;;;;21.54;62.80;99454.25;7785084;32;39989;-81
2023/06/09 10:08:30;;;;;;;5.32;3.40;;;;;;;21.92;62.81;99455.69;7759355;32;39725;-84
2023/06/09 10:12:47;;;;;;;6.65;4.45;;;;;;;21.67;63.17;99444.72;7745168;32;39816;-84
2023/06/09 10:17:05;;;;;;;5.87;3.58;;;;;;;22.03;63.40;99450.44;7742566;32;37823;-81
2023/06/09 10:21:23;;;;;;;7.37;3.58;;;;;;;22.20;62.23;99446.50;7760635;32;41008;-80
2023/06/09 10:25:39;;;;;;;4.57;2.95;;;;;;;22.12;61.97;99446.28;7762805;32;40762;-79
2023/06/09 10:29:56;;;;;;;5.37;3.33;;;;;;;22.52;58.19;99438.16;7752247;32;38726;-82
2023/06/09 10:34:15;;;;;;;4.47;2.17;;;;;;;22.46;59.68;99432.06;7769386;32;38002;-82
2023/06/09 10:38:36;;;;;;;4.05;3.00;;;;;;;22.27;59.06;99430.84;7761132;32;39771;-82
2023/06/09 10:43:17;;;;;;;4.50;3.60;;;;;;;22.55;60.09;99427.13;7753570;32;40940;-83
2023/06/09 10:47:45;;;;;;;4.20;2.97;;;;;;;22.99;61.84;99426.94;7760308;32;37902;-86
2023/06/09 10:52:03;;;;;;;6.07;3.80;;;;;;;22.91;58.66;99419.59;7761773;32;37880;-83
2023/06/09 10:56:40;;;;;;;5.75;4.00;;;;;;;23.22;62.49;99407.56;7761087;32;39029;-82
2023/06/09 11:01:07;;;;;;;6.07;4.20;;;;;;;23.53;61.62;99413.34;7760876;32;39958;-83
2023/06/09 11:05:39;;;;;;;5.12;3.85;;;;;;;23.41;59.97;99403.97;7758377;32;37941;-82
2023/06/09 11:09:56;;;;;;;5.07;3.87;;;;;;;23.70;58.11;99392.53;7757236;32;37264;-83
2023/06/09 11:14:45;;;;;;;5.55;4.03;;;;;;;23.78;58.11;99389.56;7760735;32;39234;-83
2023/06/09 11:19:21;;;;;;;6.57;4.62;;;;;;;23.61;58.31;99384.44;7762019;32;39714;-83
2023/06/09 11:24:00;;;;;;;5.05;3.85;;;;;;;23.65;58.35;99385.34;7741271;32;38577;-82
2023/06/09 11:28:18;;;;;;;6.10;4.35;;;;;;;23.77;57.74;99392.69;7737237;32;36800;-84
2023/06/09 11:32:52;;;;;;;7.22;4.22;;;;;;;23.65;58.31;99390.91;7740588;32;40501;-82
2023/06/09 11:37:09;;;;;;;8.15;4.25;;;;;;;23.78;56.89;99395.12;7758853;32;39775;-82
2023/06/09 11:41:26;;;;;;;5.80;3.90;;;;;;;23.43;58.49;99379.34;7762492;32;38757;-82
2023/06/09 11:45:43;;;;;;;5.78;4.40;;;;;;;23.46;58.63;99388.97;7759475;32;37040;-81
2023/06/09 11:50:05;;;;;;;4.75;3.78;;;;;;;23.25;58.85;99398.50;7757117;32;39261;-83
2023/06/09 11:54:42;;;;;;;5.45;3.62;;;;;;;23.48;58.38;99394.16;7761734;32;40157;-83
2023/06/09 11:58:58;;;;;;;5.40;4.10;;;;;;;23.54;56.71;99387.94;7760348;32;38649;-82
2023/06/09 12:03:19;;;;;;;6.28;3.75;;;;;;;23.69;57.75;99385.41;7761717;32;37298;-82
2023/06/09 12:07:37;;;;;;;6.62;4.30;;;;;;;23.35;58.60;99376.81;7762215;32;38828;-83
2023/06/09 12:11:54;;;;;;;6.62;4.00;;;;;;;23.67;56.54;99377.41;7762537;32;39771;-84
2023/06/09 12:16:11;;;;;;;5.82;3.97;;;;;;;23.66;56.36;99377.78;7759172;32;37681;-84
2023/06/09 12:20:30;;;;;;;6.85;3.70;;;;;;;23.98;58.06;99373.59;7762322;32;37168;-83
2023/06/09 12:24:46;;;;;;;5.25;3.62;;;;;;;24.27;55.13;99378.84;7762259;32;39088;-83
2023/06/09 12:29:03;;;;;;;5.85;3.67;;;;;;;24.25;55.46;99373.63;7763241;32;41428;-84
2023/06/09 12:33:22;;;;;;;4.37;3.17;;;;;;;24.58;54.30;99357.41;7766112;32;38000;-84
2023/06/09 12:37:39;;;;;;;7.30;3.90;;;;;;;24.87;53.62;99364.16;7765788;32;37080;-85
2023/06/09 12:41:56;;;;;;;6.80;3.47;;;;;;;25.21;56.02;99361.37;7765902;32;39347;-85
2023/06/09 12:46:17;;;;;;;4.93;3.10;;;;;;;25.24;52.84;99355.84;7765974;32;40890;-85
2023/06/09 12:50:34;;;;;;;4.25;3.45;;;;;;;25.33;52.56;99347.19;7764561;32;38685;-83
2023/06/09 12:54:52;;;;;;;5.43;3.62;;;;;;;25.55;51.24;99356.59;7765500;32;36993;-84
2023/06/09 12:59:25;;;;;;;5.40;3.30;;;;;;;25.57;50.07;99345.84;7761867;32;39373;-85
2023/06/09 13:03:42;;;;;;;4.65;2.85;;;;;;;25.33;50.61;99350.00;7765593;32;40093;-85
2023/06/09 13:08:00;;;;;;;5.03;2.95;;;;;;;25.67;48.16;99341.56;7765527;32;37803;-84
2023/06/09 13:12:16;;;;;;;4.45;3.08;;;;;;;25.70;50.39;99335.22;7765747;32;37000;-85
2023/06/09 13:16:32;;;;;;;6.10;3.50;;;;;;;25.65;48.98;99332.78;7766006;32;40318;-85
2023/06/09 13:20:49;;;;;;;5.62;3.10;;;;;;;25.81;50.99;99327.72;7765102;32;41482;-86
2023/06/09 13:25:06;;;;;;;4.55;3.10;;;;;;;25.93;51.36;99334.22;7765823;32;37828;-86
2023/06/09 13:29:23;;;;;;;7.40;3.40;;;;;;;25.84;52.25;99338.13;7764832;32;38159;-85
2023/06/09 13:33:39;;;;;;;6.45;3.55;;;;;;;25.45;54.39;99327.41;7765683;32;38329;-85
2023/06/09 13:37:56;;;;;;;5.28;3.50;;;;;;;25.39;53.59;99334.53;7765310;32;40696;-85
2023/06/09 13:42:12;;;;;;;5.18;3.30;;;;;;;24.87;55.35;99336.28;7763523;32;37456;-85
2023/06/09 13:46:28;;;;;;;5.22;3.40;;;;;;;24.96;55.00;99333.19;7765140;32;37072;-83
2023/06/09 13:50:45;;;;;;;5.37;3.08;;;;;;;24.74;55.44;99328.16;7762675;32;38994;-84
2023/06/09 13:55:01;;;;;;;5.20;3.00;;;;;;;24.81;55.65;99324.66;7763290;32;40785;-83
2023/06/09 13:59:17;;;;;;;7.20;3.37;;;;;;;24.76;55.18;99321.44;7757531;32;38654;-83
2023/06/09 14:03:34;;;;;;;6.10;3.15;;;;;;;24.77;54.75;99318.25;7758600;32;37215;-83
2023/06/09 14:07:51;;;;;;;6.55;3.47;;;;;;;24.70;55.01;99318.97;7762557;32;39483;-83
2023/06/09 14:12:08;;;;;;;5.45;3.40;;;;;;;24.90;55.60;99313.22;7762224;32;39870;-84
2023/06/09 14:16:25;;;;;;;3.37;2.62;;;;;;;24.93;56.06;99313.25;7760812;32;38608;-84
2023/06/09 14:20:42;;;;;;;4.18;3.00;;;;;;;24.90;53.67;99313.22;7763227;32;37596;-83
2023/06/09 14:24:59;;;;;;;4.22;2.40;;;;;;;24.94;54.47;99314.09;7762629;32;39326;-84
2023/06/09 14:29:15;;;;;;;3.72;2.62;;;;;;;24.72;52.94;99313.81;7756312;32;276300;-84
2023/06/09 14:33:32;;;;;;;4.45;2.30;;;;;;;25.19;53.50;99307.97;7765014;32;37964;-84
2023/06/09 14:37:50;;;;;;;6.05;2.50;;;;;;;25.19;53.01;99299.63;7763748;32;37022;-84
2023/06/09 14:42:08;;;;;;;2.83;2.03;;;;;;;25.28;53.33;99302.91;7764507;32;38412;-83
2023/06/09 14:46:24;;;;;;;3.25;2.28;;;;;;;25.25;51.33;99300.84;7762700;32;40899;-82
2023/06/09 14:50:42;;;;;;;3.03;2.28;;;;;;;25.19;49.35;99305.19;7753988;32;38625;-84
2023/06/09 14:55:00;;;;;;;2.70;2.00;;;;;;;25.15;50.90;99294.00;7746378;32;37210;-84
2023/06/09 14:59:16;;;;;;;3.33;2.00;;;;;;;25.05;48.63;99297.47;7746742;32;39293;-86
2023/06/09 15:03:33;;;;;;;4.55;2.20;;;;;;;25.16;49.55;99297.59;7762620;32;39747;-84
2023/06/09 15:07:51;;;;;;;3.37;2.30;;;;;;;25.42;51.67;99291.91;7752920;32;37831;-84
2023/06/09 15:12:07;;;;;;;3.55;2.30;;;;;;;25.81;47.61;99282.25;7760165;32;36860;-84
2023/06/09 15:16:24;;;;;;;2.62;2.20;;;;;;;25.90;50.24;99274.34;7737494;32;40121;-84
2023/06/09 15:20:42;;;;;;;3.45;2.37;;;;;;;25.92;46.77;99271.16;7737416;32;39919;-81
2023/06/09 15:24:58;;;;;;;2.45;1.67;;;;;;;26.09;46.16;99272.50;7751637;32;38669;-81
2023/06/09 15:29:15;;;;;;;2.47;2.10;;;;;;;26.50;45.48;99273.12;7761840;32;37009;-81
2023/06/09 15:33:32;;;;;;;5.47;2.17;;;;;;;26.48;48.15;99267.13;7760815;32;39336;-82
2023/06/09 15:37:48;;;;;;;4.15;1.73;;;;;;;26.06;45.84;99260.13;7759850;32;39879;-81
2023/06/09 15:42:07;;;;;;;3.20;2.03;;;;;;;26.56;46.04;99257.59;7761997;32;37059;-81
2023/06/09 15:46:23;;;;;;;2.60;2.10;;;;;;;26.11;44.54;99251.34;7761511;32;37186;-81
2023/06/09 15:50:42;;;;;;;4.10;2.35;;;;;;;26.03;44.85;99253.31;7761240;32;39276;-81
2023/06/09 15:54:59;;;;;;;5.90;2.40;;;;;;;25.28;46.58;99247.13;7759415;32;39963;-80
2023/06/09 15:59:17;;;;;;;6.22;2.67;;;;;;;25.74;46.23;99238.34;7749922;32;37699;-80
2023/06/09 16:03:34;;;;;;;6.05;2.78;;;;;;;25.58;46.33;99249.78;7758885;32;37684;-82
2023/06/09 16:07:51;;;;;;;2.30;2.10;;;;;;;25.67;46.95;99246.66;7766059;32;38936;-82
2023/06/09 16:12:08;;;;;;;2.30;2.05;;;;;;;25.95;45.09;99250.88;7766192;32;40828;-82
2023/06/09 16:16:25;;;;;;;3.17;2.40;;;;;;;25.46;46.11;99250.88;7766568;32;37892;-82
2023/06/09 16:20:41;;;;;;;5.60;2.17;;;;;;;25.11;48.20;99254.91;7765756;32;37016;-81
2023/06/09 16:24:59;;;;;;;3.95;2.15;;;;;;;25.45;46.83;99252.06;7766715;32;39230;-82
2023/06/09 16:29:19;;;;;;;4.75;2.00;;;;;;;25.32;49.66;99256.34;7765417;32;39990;-82
2023/06/09 16:33:38;;;;;;;3.33;2.05;;;;;;;25.37;47.59;99253.19;7766517;32;38990;-82
2023/06/09 16:37:56;;;;;;;4.07;2.08;;;;;;;25.54;49.04;99256.53;7766149;32;36971;-82
2023/06/09 16:42:13;;;;;;;2.55;1.80;;;;;;;25.45;48.89;99254.84;7765516;32;39011;-81
2023/06/09 16:46:30;;;;;;;2.85;1.85;;;;;;;25.49;48.81;99266.84;7766250;32;39890;-82
2023/06/09 16:50:46;;;;;;;2.50;1.90;;;;;;;25.25;49.45;99262.66;7765142;32;37962;-79
2023/06/09 16:55:03;;;;;;;4.55;2.28;;;;;;;25.34;49.29;99267.91;7766377;32;37668;-81
2023/06/09 16:59:21;;;;;;;2.85;1.80;;;;;;;25.32;49.17;99266.69;7765178;32;39101;-82
2023/06/09 17:03:40;;;;;;;2.50;2.10;;;;;;;25.31;48.50;99268.69;7757863;32;39974;-80
2023/06/09 17:07:57;;;;;;;2.50;2.00;;;;;;;25.57;48.39;99266.91;7765164;32;38482;-82
2023/06/09 17:12:13;;;;;;;3.62;2.15;;;;;;;25.72;47.76;99274.22;7762618;32;37244;-82
2023/06/09 17:16:30;;;;;;;6.07;2.62;;;;;;;25.60;46.59;99271.72;7765728;32;39505;-82
2023/06/09 17:20:47;;;;;;;3.25;2.40;;;;;;;25.67;48.16;99271.78;7764881;32;40030;-82
2023/06/09 17:25:04;;;;;;;7.12;2.03;;;;;;;25.74;47.42;99273.84;7762243;32;37787;-82
2023/06/09 17:29:22;;;;;;;2.65;1.98;;;;;;;25.71;48.71;99269.03;7760473;32;37914;-81
2023/06/09 17:33:39;;;;;;;10.73;2.12;;;;;;;25.47;48.84;99277.63;7764144;32;38342;-87
2023/06/09 17:37:56;;;;;;;3.03;1.92;;;;;;;25.26;49.34;99277.41;7779963;32;39959;-87
2023/06/09 17:42:12;;;;;;;4.03;2.00;;;;;;;24.98;49.97;99278.69;7756776;32;37831;-83
2023/06/09 17:46:29;;;;;;;4.32;2.12;;;;;;;25.05;49.88;99275.16;7765163;32;37195;-84
2023/06/09 17:50:45;;;;;;;6.97;2.10;;;;;;;24.90;50.51;99279.78;7764886;32;39877;-83
2023/06/09 17:55:03;;;;;;;3.42;1.90;;;;;;;24.81;50.87;99276.50;7745541;32;40012;-84
2023/06/09 17:59:19;;;;;;;3.33;2.33;;;;;;;24.69;51.89;99286.69;7762713;32;37562;-83
2023/06/09 18:03:36;;;;;;;5.47;2.20;;;;;;;24.59;52.63;99287.38;7753008;32;37135;-81
2023/06/09 18:07:52;;;;;;;3.90;2.10;;;;;;;24.55;53.24;99286.53;7762403;32;39396;-81
2023/06/09 18:12:10;;;;;;;4.10;2.10;;;;;;;24.46;54.54;99286.00;7744299;32;40794;-81
2023/06/09 18:16:26;;;;;;;4.80;2.28;;;;;;;24.24;54.90;99288.47;7777174;32;37902;-82
2023/06/09 18:20:43;;;;;;;3.80;2.40;;;;;;;24.12;55.63;99292.28;7766605;32;37938;-82
2023/06/09 18:24:59;;;;;;;8.65;2.47;;;;;;;24.05;56.59;99302.53;7764853;32;39282;-81
2023/06/09 18:29:16;;;;;;;6.78;2.42;;;;;;;23.86;57.19;99309.78;7764098;32;40787;-81
2023/06/09 18:33:32;;;;;;;7.28;2.08;;;;;;;23.71;57.83;99310.69;7761281;32;38056;-81
2023/06/09 18:37:50;;;;;;;8.68;2.97;;;;;;;23.63;58.10;99310.56;7759198;32;36752;-82
2023/06/09 18:42:11;;;;;;;5.15;2.50;;;;;;;23.35;58.28;99326.75;7753801;32;40089;-81
2023/06/09 18:46:29;;;;;;;7.30;3.05;;;;;;;23.16;58.54;99324.81;7762949;32;39692;-82
2023/06/09 18:50:54;;;;;;;3.53;2.53;;;;;;;23.08;58.62;99318.31;7763317;32;38640;-81
2023/06/09 18:55:10;;;;;;;6.00;2.60;;;;;;;23.14;57.80;99325.16;7761321;32;37041;-81
2023/06/09 18:59:27;;;;;;;7.70;3.05;;;;;;;22.95;58.31;99325.16;7758687;32;40009;-80
2023/06/09 19:03:48;;;;;;;6.53;2.80;;;;;;;23.02;58.01;99322.53;7758334;32;40048;-81
2023/06/09 19:08:05;;;;;;;5.35;2.40;;;;;;;22.92;58.21;99334.22;7757676;32;38074;-81
2023/06/09 19:12:22;;;;;;;7.37;2.67;;;;;;;22.67;58.81;99342.88;7762076;32;35595;-82
2023/06/09 19:16:39;;;;;;;4.62;2.85;;;;;;;22.67;58.62;99343.66;7759613;32;39477;-82
2023/06/09 19:20:55;;;;;;;5.47;2.90;;;;;;;22.45;59.24;99349.91;7748069;32;39818;-83
2023/06/09 19:25:12;;;;;;;7.97;3.47;;;;;;;22.52;59.29;99352.06;7751861;32;38730;-80
2023/06/09 19:29:29;;;;;;;5.80;2.37;;;;;;;22.25;60.38;99360.13;7742945;32;37048;-82
2023/06/09 19:33:45;;;;;;;4.00;2.72;;;;;;;22.24;60.74;99347.44;7761772;32;39048;-83
2023/06/09 19:38:02;;;;;;;6.37;2.92;;;;;;;22.18;61.27;99346.09;7761134;32;39913;-83
2023/06/09 19:42:24;;;;;;;5.68;2.83;;;;;;;21.96;62.32;99348.38;7770399;32;38654;-82
2023/06/09 19:46:41;;;;;;;9.70;3.20;;;;;;;21.88;61.67;99347.38;7764377;32;37127;-84
2023/06/09 19:50:57;;;;;;;5.82;2.72;;;;;;;21.82;61.86;99343.28;7767169;32;39953;-84
2023/06/09 19:55:15;;;;;;;5.30;3.08;;;;;;;21.73;62.02;99340.69;7770804;32;40831;-84
2023/06/09 19:59:33;;;;;;;6.20;2.80;;;;;;;21.61;62.22;99342.72;7770642;32;37474;-83
2023/06/09 20:03:53;;;;;;;5.35;2.62;;;;;;;21.54;62.48;99348.88;7771059;32;36814;-85
2023/06/09 20:08:12;;;;;;;4.62;2.80;;;;;;;21.33;63.08;99349.88;7768604;32;39337;-85
2023/06/09 20:12:28;;;;;;;5.80;2.53;;;;;;;21.47;62.51;99343.16;7769587;32;40687;-85